To NAV CANADA Home Page Login to a new session Search on AWWS site Feedback and Comments Disclaimer Vers la page française équivalente Tips FAQ What's new on the site To the Forecasts and Observations / NOTAM section To "File a Flight Plan" website Publications and other links Update of the User's profile FIC Telephone Numbers My Weather Data Folder Route Weather Data Regional Weather Data Local Weather Data To the Forecasts and Observations / NOTAM section
Request Generated 03/29/2015 at 17:18:13 UTC . Weather information available at that time is displayed.

METAR/TAF

ROBERVAL/QC    

METAR CYRJ 291700Z 24013G22KT 40SM BKN220 03/M15 A2991 RMK CI7
SLP138=
METAR CYRJ 291600Z 24011KT 40SM BKN220 02/M15 A2995 RMK CI7 SLP152=
METAR CYRJ 291500Z 22009KT 170V240 40SM SCT220 01/M15 A2998 RMK CI4
SLP165=

TAF CYRJ 291338Z 2914/3002 23008KT P6SM FEW220
BECMG 2914/2916 23012G22KT
FM291700 22010G20KT P6SM BKN150
RMK NXT FCST BY 292000Z=
Your time UTC time
Weather data provided by Environment Canada and NAV CANADA